createdAt,value
2018-07-08T00:02:14.912Z,100087.12
2018-07-08T00:04:45.128Z,100086.39
2018-07-08T00:07:15.201Z,100086.85
2018-07-08T00:09:45.165Z,100086.70
2018-07-08T00:12:15.434Z,100083.77
2018-07-08T00:14:45.637Z,100078.45
2018-07-08T00:17:16.024Z,100085.61
2018-07-08T00:19:46.075Z,100102.38
2018-07-08T00:22:16.376Z,100089.00
2018-07-08T00:24:46.372Z,100099.97
2018-07-08T00:27:16.785Z,100094.47
2018-07-08T00:29:47.016Z,100094.77
2018-07-08T00:32:21.401Z,100090.38
2018-07-08T00:34:51.782Z,100091.29
2018-07-08T00:37:22.097Z,100091.95
2018-07-08T00:39:52.713Z,100087.84
2018-07-08T00:42:23.150Z,100075.14
2018-07-08T00:44:53.372Z,100062.20
2018-07-08T00:47:23.663Z,100070.89
2018-07-08T00:49:53.955Z,100061.40
2018-07-08T00:52:24.489Z,100070.65
2018-07-08T00:54:55.585Z,100059.70
2018-07-08T00:57:25.957Z,100070.17
2018-07-08T00:59:56.247Z,100068.78
2018-07-08T01:02:26.439Z,100078.33
2018-07-08T01:04:56.637Z,100067.62
2018-07-08T01:07:26.833Z,100069.60
2018-07-08T01:09:57.057Z,100072.92
2018-07-08T01:12:27.717Z,100067.83
2018-07-08T01:14:57.880Z,100057.49
2018-07-08T01:17:28.168Z,100063.41
2018-07-08T01:19:58.443Z,100075.19
2018-07-08T01:22:28.665Z,100070.00
2018-07-08T01:25:17.971Z,100060.63
2018-07-08T01:27:47.951Z,100059.70
2018-07-08T01:30:17.972Z,100063.80
2018-07-08T01:32:48.213Z,100064.84
2018-07-08T01:35:18.429Z,100065.22
2018-07-08T01:37:48.621Z,100064.80
2018-07-08T01:40:18.820Z,100085.52
2018-07-08T01:42:48.950Z,100079.84
2018-07-08T01:45:19.160Z,100075.43
2018-07-08T01:47:49.371Z,100071.11
2018-07-08T01:50:23.172Z,100074.33
2018-07-08T01:52:55.951Z,100062.21
2018-07-08T01:55:26.568Z,100062.98
2018-07-08T01:58:02.048Z,100071.16
2018-07-08T02:00:32.609Z,100072.82
2018-07-08T02:03:02.736Z,100064.51
2018-07-08T02:05:32.954Z,100054.56
2018-07-08T02:08:03.220Z,100059.84
2018-07-08T02:10:33.401Z,100063.20
2018-07-08T02:13:03.670Z,100058.02
2018-07-08T02:15:33.879Z,100059.05
2018-07-08T02:18:04.088Z,100057.95
2018-07-08T02:20:34.350Z,100063.67
2018-07-08T02:23:04.800Z,100062.61
2018-07-08T02:25:34.782Z,100062.08
2018-07-08T02:28:05.005Z,100054.70
2018-07-08T02:30:35.469Z,100058.13
2018-07-08T02:33:05.824Z,100051.11
2018-07-08T02:35:36.653Z,100058.69
2018-07-08T02:38:06.956Z,100070.73
2018-07-08T02:40:37.436Z,100055.02
2018-07-08T02:43:07.749Z,100051.66
2018-07-08T02:45:37.949Z,100054.77
2018-07-08T02:48:08.336Z,100056.89
2018-07-08T02:50:39.248Z,100054.72
2018-07-08T02:53:09.491Z,100058.48
2018-07-08T02:55:39.687Z,100072.00
2018-07-08T02:58:09.859Z,100067.25
2018-07-08T03:00:40.044Z,100063.08
2018-07-08T03:03:10.307Z,100061.92
2018-07-08T03:05:46.888Z,100056.78
2018-07-08T03:08:17.080Z,100058.65
2018-07-08T03:10:47.293Z,100050.39
2018-07-08T03:13:17.493Z,100055.73
2018-07-08T03:15:47.694Z,100052.84
2018-07-08T03:18:17.890Z,100053.91
2018-07-08T03:20:48.096Z,100054.70
2018-07-08T03:23:18.300Z,100064.05
2018-07-08T03:25:48.478Z,100069.71
2018-07-08T03:28:18.665Z,100070.78
2018-07-08T03:30:48.936Z,100067.03
2018-07-08T03:33:19.142Z,100069.66
2018-07-08T03:35:49.376Z,100064.16
2018-07-08T03:38:19.564Z,100064.89
2018-07-08T03:40:50.138Z,100058.00
2018-07-08T03:43:20.438Z,100052.16
2018-07-08T03:45:50.648Z,100054.48
2018-07-08T03:48:20.841Z,100048.96
2018-07-08T03:50:51.145Z,100047.54
2018-07-08T03:53:21.376Z,100049.63
2018-07-08T03:55:51.355Z,100039.94
2018-07-08T03:58:21.583Z,100050.02
2018-07-08T04:00:51.544Z,100050.80
2018-07-08T04:03:21.496Z,100087.25
2018-07-08T04:05:51.669Z,100108.70
2018-07-08T04:08:22.225Z,100073.72
2018-07-08T04:10:52.653Z,100069.55
2018-07-08T04:13:22.835Z,100076.55
2018-07-08T04:15:53.018Z,100066.33
2018-07-08T04:18:23.183Z,100071.09
2018-07-08T04:20:53.377Z,100076.62
2018-07-08T04:23:23.726Z,100077.02
2018-07-08T04:25:53.918Z,100081.73
2018-07-08T04:28:24.169Z,100087.80
2018-07-08T04:30:54.348Z,100094.69
2018-07-08T04:33:24.537Z,100120.81
2018-07-08T04:35:54.718Z,100102.05
2018-07-08T04:38:24.936Z,100101.19
2018-07-08T04:40:55.176Z,100099.70
2018-07-08T04:43:25.385Z,100107.17
2018-07-08T04:45:55.556Z,100112.09
2018-07-08T04:48:25.740Z,100109.46
2018-07-08T04:50:56.062Z,100118.02
2018-07-08T04:53:26.833Z,100116.67
2018-07-08T04:55:57.622Z,100109.65
2018-07-08T04:58:28.418Z,100117.58
2018-07-08T05:00:59.234Z,100116.21
2018-07-08T05:03:30.345Z,100107.98
2018-07-08T05:06:01.131Z,100112.17
2018-07-08T05:08:31.932Z,100113.09
2018-07-08T05:11:02.949Z,100118.86
2018-07-08T05:13:33.728Z,100121.83
2018-07-08T05:16:04.540Z,100124.22
2018-07-08T05:18:35.353Z,100103.92
2018-07-08T05:21:06.617Z,100135.41
2018-07-08T05:23:37.386Z,100119.55
2018-07-08T05:26:07.966Z,100120.84
2018-07-08T05:28:38.797Z,100118.41
2018-07-08T05:31:09.571Z,100116.56
2018-07-08T05:33:40.404Z,100120.55
2018-07-08T05:36:11.225Z,100116.10
2018-07-08T05:38:42.029Z,100125.20
2018-07-08T05:41:12.793Z,100125.59
2018-07-08T05:43:43.997Z,100122.61
2018-07-08T05:46:14.767Z,100127.48
2018-07-08T05:48:45.595Z,100128.30
2018-07-08T05:51:16.546Z,100134.66
2018-07-08T05:53:47.375Z,100134.91
2018-07-08T05:56:18.129Z,100134.75
2018-07-08T05:58:48.933Z,100176.28
2018-07-08T06:01:19.705Z,100160.48
2018-07-08T06:03:50.496Z,100158.25
2018-07-08T06:06:21.280Z,100162.10
2018-07-08T06:08:51.557Z,100136.47
2018-07-08T06:11:22.079Z,100134.47
2018-07-08T06:13:52.666Z,100135.64
2018-07-08T06:16:23.302Z,100139.44
2018-07-08T06:18:53.849Z,100133.97
2018-07-08T06:21:24.319Z,100141.52
2018-07-08T06:23:54.861Z,100141.41
2018-07-08T06:26:25.374Z,100209.83
2018-07-08T06:28:56.333Z,100225.38
2018-07-08T06:31:26.927Z,100096.84
2018-07-08T06:33:57.416Z,100099.20
2018-07-08T06:36:27.940Z,100095.94
2018-07-08T06:38:58.457Z,100103.09
2018-07-08T06:41:28.925Z,100091.95
2018-07-08T06:44:00.214Z,100094.34
2018-07-08T06:46:30.886Z,100092.47
2018-07-08T06:49:01.581Z,100086.11
2018-07-08T06:51:32.297Z,100091.47
2018-07-08T06:54:02.933Z,100087.84
2018-07-08T06:56:33.408Z,100093.41
2018-07-08T06:59:04.126Z,100092.94
2018-07-08T07:01:35.159Z,100106.38
2018-07-08T07:04:06.310Z,100093.09
2018-07-08T07:06:36.929Z,100092.02
2018-07-08T07:09:09.324Z,100091.48
2018-07-08T07:11:40.507Z,100093.64
2018-07-08T07:14:10.808Z,100092.28
2018-07-08T07:16:41.658Z,100088.89
2018-07-08T07:19:12.556Z,100096.36
2018-07-08T07:21:43.362Z,100097.59
2018-07-08T07:24:14.181Z,100092.53
2018-07-08T07:26:45.211Z,100099.20
2018-07-08T07:29:15.978Z,100093.30
2018-07-08T07:31:46.745Z,100093.77
2018-07-08T07:34:17.561Z,100098.36
2018-07-08T07:36:48.082Z,100091.53
2018-07-08T07:39:18.860Z,100092.66
2018-07-08T07:41:49.593Z,100086.70
2018-07-08T07:44:20.399Z,100085.05
2018-07-08T07:46:51.165Z,100094.19
2018-07-08T07:49:21.989Z,100090.42
2018-07-08T07:51:52.849Z,100093.74
2018-07-08T07:54:23.661Z,100088.66
2018-07-08T07:56:54.439Z,100089.62
2018-07-08T07:59:25.282Z,100086.95
2018-07-08T08:01:56.159Z,100088.46
2018-07-08T08:04:28.637Z,100087.86
2018-07-08T08:07:03.808Z,100090.72
2018-07-08T08:09:35.202Z,100083.44
2018-07-08T08:12:05.981Z,100086.61
2018-07-08T08:14:36.796Z,100088.41
2018-07-08T08:17:07.757Z,100083.76
2018-07-08T08:19:38.541Z,100092.71
2018-07-08T08:22:09.310Z,100090.10
2018-07-08T08:24:40.082Z,100091.48
2018-07-08T08:27:10.882Z,100093.03
2018-07-08T08:29:41.685Z,100097.92
2018-07-08T08:32:12.547Z,100092.63
2018-07-08T08:34:58.536Z,100091.55
2018-07-08T08:37:31.285Z,100093.52
2018-07-08T08:40:02.665Z,100090.01
2018-07-08T08:42:33.451Z,100092.98
2018-07-08T08:45:04.394Z,100094.64
2018-07-08T08:47:35.258Z,100095.41
2018-07-08T08:50:06.729Z,100095.92
2018-07-08T08:52:37.635Z,100096.44
2018-07-08T08:55:09.153Z,100096.55
2018-07-08T08:57:39.985Z,100093.08
2018-07-08T09:00:13.080Z,100092.88
2018-07-08T09:02:43.989Z,100092.19
2018-07-08T09:05:15.464Z,100090.22
2018-07-08T09:07:45.997Z,100092.05
2018-07-08T09:10:16.553Z,100101.42
2018-07-08T09:12:47.069Z,100095.05
2018-07-08T09:15:17.585Z,100096.59
2018-07-08T09:17:48.100Z,100096.39
2018-07-08T09:20:19.037Z,100093.94
2018-07-08T09:22:49.820Z,100095.97
2018-07-08T09:25:21.090Z,100103.23
2018-07-08T09:27:51.828Z,100101.14
2018-07-08T09:30:23.123Z,100098.85
2018-07-08T09:32:53.897Z,100093.16
2018-07-08T09:35:24.746Z,100091.31
2018-07-08T09:37:55.497Z,100093.66
2018-07-08T09:40:26.541Z,100093.00
2018-07-08T09:42:57.361Z,100092.55
2018-07-08T09:45:28.452Z,100093.79
2018-07-08T09:47:59.301Z,100088.50
2018-07-08T09:50:30.855Z,100095.70
2018-07-08T09:53:02.504Z,100090.48
2018-07-08T09:55:33.313Z,100096.31
2018-07-08T09:58:04.424Z,100090.80
2018-07-08T10:00:37.661Z,100091.64
2018-07-08T10:03:09.139Z,100093.64
2018-07-08T10:05:39.987Z,100087.98
2018-07-08T10:08:10.757Z,100086.46
2018-07-08T10:10:41.563Z,100090.87
2018-07-08T10:13:12.373Z,100091.08
2018-07-08T10:15:43.273Z,100090.52
2018-07-08T10:18:14.113Z,100092.11
2018-07-08T10:20:44.943Z,100084.99
2018-07-08T10:23:15.826Z,100081.95
2018-07-08T10:25:47.580Z,100086.90
2018-07-08T10:31:00.031Z,100087.41
2018-07-08T10:34:07.580Z,100087.19
2018-07-08T10:36:38.455Z,100081.88
2018-07-08T10:39:11.774Z,100084.64
2018-07-08T10:41:43.880Z,100078.94
2018-07-08T10:44:14.765Z,100081.63
2018-07-08T10:46:45.560Z,100085.11
2018-07-08T10:49:16.379Z,100081.67
2018-07-08T10:51:47.232Z,100083.71
2018-07-08T10:54:18.146Z,100082.31
2018-07-08T10:56:49.154Z,100083.13
2018-07-08T10:59:20.071Z,100086.04
2018-07-08T11:01:50.920Z,100079.12
2018-07-08T11:04:22.009Z,100079.43
2018-07-08T11:06:52.865Z,100077.66
2018-07-08T11:09:23.837Z,100091.27
2018-07-08T11:11:54.661Z,100089.73
2018-07-08T11:14:25.429Z,100088.52
2018-07-08T11:16:56.328Z,100093.59
2018-07-08T11:19:27.113Z,100085.37
2018-07-08T11:21:57.907Z,100087.79
2018-07-08T11:24:28.717Z,100083.98
2018-07-08T11:26:59.621Z,100082.75
2018-07-08T11:29:30.385Z,100080.79
2018-07-08T11:32:01.207Z,100082.65
2018-07-08T11:34:31.972Z,100079.58
2018-07-08T11:37:02.789Z,100077.41
2018-07-08T11:39:33.526Z,100075.58
2018-07-08T11:42:04.964Z,100069.31
2018-07-08T11:44:35.716Z,100069.89
2018-07-08T11:47:06.686Z,100061.75
2018-07-08T11:49:37.517Z,100064.84
2018-07-08T11:52:08.345Z,100062.03
2018-07-08T11:54:39.234Z,100052.38
2018-07-08T11:57:10.096Z,100060.87
2018-07-08T11:59:40.858Z,100065.60
2018-07-08T12:02:11.653Z,100063.92
2018-07-08T12:04:42.413Z,100062.06
2018-07-08T12:07:13.216Z,100063.30
2018-07-08T12:09:43.985Z,100056.98
2018-07-08T12:12:14.781Z,100057.78
2018-07-08T12:14:45.617Z,100062.60
2018-07-08T12:17:16.442Z,100064.14
2018-07-08T12:19:47.276Z,100063.84
2018-07-08T12:22:18.089Z,100058.52
2018-07-08T12:24:48.931Z,100053.00
2018-07-08T12:27:19.720Z,100056.12
2018-07-08T12:29:50.541Z,100054.33
2018-07-08T12:32:21.340Z,100060.58
2018-07-08T12:34:52.105Z,100056.52
2018-07-08T12:37:22.963Z,100053.36
2018-07-08T12:39:53.738Z,100047.88
2018-07-08T12:42:24.582Z,100063.84
2018-07-08T12:44:55.405Z,100054.31
2018-07-08T12:47:26.622Z,100054.48
2018-07-08T12:49:57.436Z,100054.07
2018-07-08T12:52:28.290Z,100053.74
2018-07-08T12:54:59.096Z,100057.72
2018-07-08T12:57:29.967Z,100050.81
2018-07-08T13:00:01.106Z,100051.23
2018-07-08T13:02:31.998Z,100052.55
2018-07-08T13:05:03.669Z,100048.50
2018-07-08T13:07:34.485Z,100048.08
2018-07-08T13:10:05.359Z,100047.52
2018-07-08T13:12:36.209Z,100051.31
2018-07-08T13:15:07.089Z,100049.45
2018-07-08T13:17:37.877Z,100053.56
2018-07-08T13:20:09.010Z,100054.59
2018-07-08T13:22:39.829Z,100048.86
2018-07-08T13:25:10.673Z,100045.44
2018-07-08T13:27:41.966Z,100042.20
2018-07-08T13:30:13.876Z,100036.65
2018-07-08T13:32:45.453Z,100037.27
2018-07-08T13:35:16.325Z,100040.52
2018-07-08T13:37:47.278Z,100041.00
2018-07-08T13:40:18.158Z,100047.02
2018-07-08T13:42:49.259Z,100037.73
2018-07-08T13:45:20.160Z,100037.31
2018-07-08T13:47:50.998Z,100033.77
2018-07-08T13:50:21.880Z,100042.41
2018-07-08T13:52:52.914Z,100034.66
2018-07-08T13:55:23.950Z,100037.91
2018-07-08T13:57:55.282Z,100039.72
2018-07-08T14:00:26.121Z,100035.08
2018-07-08T14:02:56.960Z,100029.88
2018-07-08T14:05:27.757Z,100029.56
2018-07-08T14:07:58.616Z,100030.19
2018-07-08T14:10:29.386Z,100028.88
2018-07-08T14:13:00.217Z,100025.25
2018-07-08T14:15:30.966Z,100027.95
2018-07-08T14:18:01.802Z,100030.14
2018-07-08T14:20:32.646Z,100032.86
2018-07-08T14:23:03.701Z,100033.78
2018-07-08T14:25:34.474Z,100030.90
2018-07-08T14:28:05.879Z,100036.95
2018-07-08T14:30:36.774Z,100031.28
2018-07-08T14:33:08.258Z,100035.49
2018-07-08T14:35:39.181Z,100033.55
2018-07-08T14:38:10.505Z,100037.32
2018-07-08T14:40:41.280Z,100039.34
2018-07-08T14:43:12.113Z,100037.83
2018-07-08T14:45:42.880Z,100032.91
2018-07-08T14:48:13.844Z,100044.68
2018-07-08T14:50:44.675Z,100033.20
2018-07-08T14:53:15.613Z,100034.63
2018-07-08T14:55:46.777Z,100037.16
2018-07-08T14:58:17.602Z,100029.30
2018-07-08T15:00:48.740Z,100030.83
2018-07-08T15:03:19.594Z,100033.41
2018-07-08T15:05:50.377Z,100029.28
2018-07-08T15:08:21.200Z,100032.75
2018-07-08T15:10:52.233Z,100037.05
2018-07-08T15:13:23.074Z,100033.58
2018-07-08T15:15:53.702Z,100036.00
2018-07-08T15:18:24.725Z,100037.83
2018-07-08T15:20:55.553Z,100035.12
2018-07-08T15:23:26.383Z,100032.98
2018-07-08T15:25:57.177Z,100028.08
2018-07-08T15:28:28.042Z,100034.55
2018-07-08T15:30:58.836Z,100031.22
2018-07-08T15:33:29.702Z,100022.38
2018-07-08T15:36:00.526Z,100029.38
2018-07-08T15:38:31.390Z,100031.08
2018-07-08T15:41:02.242Z,100027.39
2018-07-08T15:43:33.877Z,100028.03
2018-07-08T15:46:04.673Z,100019.59
2018-07-08T15:48:35.460Z,100028.31
2018-07-08T15:51:06.596Z,100027.02
2018-07-08T15:53:37.501Z,100030.17
2018-07-08T15:56:08.488Z,100031.61
2018-07-08T15:58:39.308Z,100027.09
2018-07-08T16:01:10.143Z,100031.23
2018-07-08T16:03:40.973Z,100036.91
2018-07-08T16:06:11.774Z,100035.00
2018-07-08T16:08:42.662Z,100037.97
2018-07-08T16:11:13.441Z,100033.38
2018-07-08T16:13:44.396Z,100036.49
2018-07-08T16:16:15.178Z,100032.89
2018-07-08T16:18:46.057Z,100039.09
2018-07-08T16:21:17.114Z,100041.58
2018-07-08T16:23:48.198Z,100032.40
2018-07-08T16:26:18.962Z,100030.95
2018-07-08T16:28:51.850Z,100030.34
2018-07-08T16:31:22.709Z,100029.70
2018-07-08T16:33:53.570Z,100033.26
2018-07-08T16:36:24.415Z,100026.84
2018-07-08T16:38:55.634Z,100023.75
2018-07-08T16:41:26.564Z,100020.95
2018-07-08T16:43:57.481Z,100019.27
2018-07-08T16:46:28.291Z,100016.63
2018-07-08T16:48:59.142Z,100013.79
2018-07-08T16:51:29.906Z,100010.08
2018-07-08T16:54:00.778Z,100006.70
2018-07-08T16:56:31.695Z,100002.52
2018-07-08T16:59:02.560Z,100002.59
2018-07-08T17:01:33.440Z,100006.46
2018-07-08T17:04:04.257Z,100005.97
2018-07-08T17:06:35.073Z,100003.97
2018-07-08T17:09:07.685Z,99998.23
2018-07-08T17:11:38.863Z,99997.96
2018-07-08T17:14:09.685Z,99996.17
2018-07-08T17:16:40.473Z,99990.61
2018-07-08T17:19:11.301Z,99995.91
2018-07-08T17:21:42.062Z,99993.46
2018-07-08T17:24:12.882Z,99995.31
2018-07-08T17:26:43.654Z,99991.65
2018-07-08T17:29:14.457Z,99993.50
2018-07-08T17:31:45.346Z,99990.64
2018-07-08T17:34:16.271Z,99992.05
2018-07-08T17:36:47.023Z,99994.53
2018-07-08T17:39:17.792Z,99994.38
2018-07-08T17:41:55.312Z,100005.86
2018-07-08T17:44:26.546Z,100008.17
2018-07-08T17:46:57.345Z,100002.53
2018-07-08T17:49:28.549Z,100009.46
2018-07-08T17:51:59.366Z,100007.16
2018-07-08T17:54:29.985Z,100018.89
2018-07-08T17:57:00.850Z,100012.10
2018-07-08T17:59:31.721Z,100013.02
2018-07-08T18:02:02.522Z,100011.48
2018-07-08T18:04:33.329Z,100013.34
2018-07-08T18:07:04.157Z,100017.38
2018-07-08T18:09:34.955Z,100012.36
2018-07-08T18:12:05.778Z,100012.52
2018-07-08T18:14:36.468Z,100012.34
2018-07-08T18:17:07.793Z,100013.22
2018-07-08T18:19:38.629Z,100008.80
2018-07-08T18:22:09.451Z,100017.16
2018-07-08T18:24:40.292Z,100019.28
2018-07-08T18:27:11.135Z,100023.33
2018-07-08T18:29:41.965Z,100018.66
2018-07-08T18:32:12.821Z,100023.72
2018-07-08T18:34:43.677Z,100019.53
2018-07-08T18:37:14.453Z,100019.73
2018-07-08T18:39:45.700Z,100023.17
2018-07-08T18:42:16.449Z,100022.17
2018-07-08T18:44:47.318Z,100026.14
2018-07-08T18:47:18.222Z,100026.59
2018-07-08T18:49:49.014Z,100028.06
2018-07-08T18:52:19.876Z,100023.51
2018-07-08T18:54:50.703Z,100027.84
2018-07-08T18:57:21.617Z,100025.52
2018-07-08T18:59:51.870Z,100025.86
2018-07-08T19:02:22.741Z,100030.02
2018-07-08T19:04:52.961Z,100031.17
2018-07-08T19:07:23.719Z,100033.37
2018-07-08T19:09:54.534Z,100035.56
2018-07-08T19:12:24.758Z,100041.28
2018-07-08T19:14:55.316Z,100041.83
2018-07-08T19:17:25.585Z,100037.23
2018-07-08T19:19:55.781Z,100043.27
2018-07-08T19:22:26.150Z,100040.01
2018-07-08T19:24:56.721Z,100042.50
2018-07-08T19:27:27.621Z,100043.06
2018-07-08T19:29:58.425Z,100044.70
2018-07-08T19:32:29.450Z,100044.98
2018-07-08T19:35:00.661Z,100052.02
2018-07-08T19:37:31.546Z,100046.83
2018-07-08T19:40:02.409Z,100052.27
2018-07-08T19:42:33.248Z,100056.08
2018-07-08T19:45:04.484Z,100057.17
2018-07-08T19:47:35.516Z,100056.62
2018-07-08T19:50:06.613Z,100053.41
2018-07-08T19:52:38.116Z,100058.01
2018-07-08T19:55:09.169Z,100063.99
2018-07-08T19:57:40.213Z,100059.65
2018-07-08T20:00:11.058Z,100057.42
2018-07-08T20:02:42.003Z,100053.86
2018-07-08T20:05:12.805Z,100059.00
2018-07-08T20:07:47.985Z,100054.61
2018-07-08T20:10:18.973Z,100056.44
2018-07-08T20:12:49.863Z,100058.81
2018-07-08T20:15:20.433Z,100055.21
2018-07-08T20:17:50.717Z,100061.66
2018-07-08T20:20:21.517Z,100055.65
2018-07-08T20:22:51.776Z,100060.43
2018-07-08T20:25:21.977Z,100056.83
2018-07-08T20:27:52.031Z,100056.17
2018-07-08T20:30:22.251Z,100063.96
2018-07-08T20:32:52.482Z,100066.30
2018-07-08T20:35:22.776Z,100073.85
2018-07-08T20:37:53.662Z,100071.91
2018-07-08T20:40:23.856Z,100076.22
2018-07-08T20:42:54.211Z,100075.08
2018-07-08T20:45:24.441Z,100071.75
2018-07-08T20:47:54.997Z,100072.54
2018-07-08T20:50:25.254Z,100068.20
2018-07-08T20:52:55.483Z,100070.36
2018-07-08T20:55:25.776Z,100068.20
2018-07-08T20:57:56.150Z,100068.36
2018-07-08T21:00:26.362Z,100064.86
2018-07-08T21:02:56.626Z,100066.69
2018-07-08T21:05:26.969Z,100069.92
2018-07-08T21:07:57.209Z,100064.48
2018-07-08T21:10:27.448Z,100066.05
2018-07-08T21:12:57.673Z,100062.77
2018-07-08T21:15:27.910Z,100067.33
2018-07-08T21:17:58.225Z,100060.82
2018-07-08T21:20:28.475Z,100064.16
2018-07-08T21:22:59.110Z,100065.03
2018-07-08T21:25:29.381Z,100064.70
2018-07-08T21:27:59.700Z,100064.94
2018-07-08T21:30:30.057Z,100069.18
2018-07-08T21:33:00.665Z,100066.69
2018-07-08T21:35:30.921Z,100064.78
2018-07-08T21:38:01.821Z,100068.01
2018-07-08T21:40:32.098Z,100067.14
2018-07-08T21:43:02.349Z,100064.70
2018-07-08T21:45:32.605Z,100061.72
2018-07-08T21:48:02.819Z,100060.57
2018-07-08T21:50:33.061Z,100059.72
2018-07-08T21:53:03.258Z,100055.59
2018-07-08T21:55:33.480Z,100055.27
2018-07-08T21:58:03.907Z,100058.72
2018-07-08T22:00:34.338Z,100060.26
2018-07-08T22:03:04.543Z,100051.59
2018-07-08T22:05:34.547Z,100058.83
2018-07-08T22:08:05.679Z,100060.44
2018-07-08T22:10:35.891Z,100053.86
2018-07-08T22:13:06.113Z,100058.36
2018-07-08T22:15:36.315Z,100058.33
2018-07-08T22:18:06.581Z,100054.48
2018-07-08T22:20:36.935Z,100053.41
2018-07-08T22:23:07.147Z,100051.62
2018-07-08T22:25:37.441Z,100053.50
2018-07-08T22:28:07.709Z,100058.14
2018-07-08T22:30:37.951Z,100058.30
2018-07-08T22:33:08.079Z,100061.73
2018-07-08T22:35:38.559Z,100063.92
2018-07-08T22:38:08.824Z,100063.39
2018-07-08T22:40:39.122Z,100060.35
2018-07-08T22:43:09.457Z,100061.41
2018-07-08T22:45:39.642Z,100061.13
2018-07-08T22:48:09.867Z,100056.63
2018-07-08T22:50:40.052Z,100054.23
2018-07-08T22:53:10.272Z,100057.84
2018-07-08T22:55:40.523Z,100056.52
2018-07-08T22:58:10.917Z,100057.37
2018-07-08T23:00:52.254Z,100053.61
2018-07-08T23:03:47.784Z,100059.62
2018-07-08T23:06:19.066Z,100061.47
2018-07-08T23:08:50.045Z,100057.19
2018-07-08T23:11:21.119Z,100055.78
2018-07-08T23:13:52.279Z,100053.88
2018-07-08T23:16:23.109Z,100053.33
2018-07-08T23:18:53.669Z,100050.80
2018-07-08T23:21:23.958Z,100045.48
2018-07-08T23:23:54.215Z,100050.53
2018-07-08T23:26:24.425Z,100046.34
2018-07-08T23:28:54.686Z,100048.62
2018-07-08T23:31:24.874Z,100051.36
2018-07-08T23:33:55.069Z,100047.98
2018-07-08T23:36:25.311Z,100046.22
2018-07-08T23:38:55.560Z,100042.53
2018-07-08T23:41:25.782Z,100040.31
2018-07-08T23:43:56.018Z,100045.91
2018-07-08T23:46:26.324Z,100045.58
2018-07-08T23:48:56.325Z,100049.83
2018-07-08T23:51:26.489Z,100045.49
2018-07-08T23:53:56.716Z,100051.40
2018-07-08T23:56:27.304Z,100043.30
2018-07-08T23:58:57.670Z,100050.33
